Terminal Aerodrome Forecast
Issued by NWS

Home | Current Version | Previous Version | Text Only | Print | Product List | Glossary On
Versions: 1 2 3 4 5 6 7 8 9 10 11 12 13
000
FTUS45 KABQ 261126
TAFAEG
TAF
KAEG 261126Z 2612/2712 35007KT P6SM BKN080
     FM261800 19006KT P6SM VCSH BKN080
     FM262100 26008KT P6SM VCTS OVC070CB
     FM270000 28011KT P6SM VCSH OVC060
     FM270300 33006KT P6SM BKN080=

USA.gov is the U.S. government's official web portal to all federal, state and local government web resources and services.